Time;durP1;ratioP1;P1;durP2;ratioP2;P2;SDS_P1;SDS_P2;PMS_P1;PMS_P2;Temp;Humidity;BMP_temperature;BMP_pressure;BME280_temperature;BME280_humidity;BME280_pressure;Samples;Min_cycle;Max_cycle;Signal;HPM_P1;HPM_P2
2022/06/05 00:01:12;;;;;;;22.13;17.10;;;19.50;99.90;;;;;;5035647;28;20148;-73
2022/06/05 00:04:06;;;;;;;22.15;17.75;;;19.50;99.90;;;;;;5035801;28;20033;-72
2022/06/05 00:07:00;;;;;;;18.50;14.82;;;19.50;99.90;;;;;;5033786;28;20028;-73
2022/06/05 00:09:52;;;;;;;24.50;17.70;;;19.50;99.90;;;;;;5010697;28;20452;-72
2022/06/05 00:12:22;;;;;;;30.10;17.38;;;19.50;99.90;;;;;;5031681;28;20025;-73
2022/06/05 00:14:48;;;;;;;20.60;17.67;;;19.50;99.90;;;;;;5018918;28;20018;-73
2022/06/05 00:17:21;;;;;;;26.23;17.40;;;19.50;99.90;;;;;;5026225;28;20425;-72
2022/06/05 00:19:50;;;;;;;24.65;17.05;;;19.50;99.90;;;;;;5026818;28;20009;-72
2022/06/05 00:22:17;;;;;;;23.23;18.77;;;19.50;99.90;;;;;;5010893;28;20029;-72
2022/06/05 00:24:43;;;;;;;24.35;18.60;;;19.50;99.90;;;;;;5025219;28;20014;-72
2022/06/05 00:27:28;;;;;;;25.70;18.80;;;19.50;99.90;;;;;;5026863;28;20414;-72
2022/06/05 00:30:26;;;;;;;24.58;18.65;;;19.40;99.90;;;;;;5025972;28;20576;-72
2022/06/05 00:32:54;;;;;;;21.33;17.67;;;19.40;99.90;;;;;;5026426;28;20080;-72
2022/06/05 00:35:21;;;;;;;23.67;16.52;;;19.40;99.90;;;;;;5013092;28;20030;-72
2022/06/05 00:38:02;;;;;;;23.65;18.35;;;19.40;99.90;;;;;;5036591;28;20026;-72
2022/06/05 00:40:46;;;;;;;24.92;17.27;;;19.40;99.90;;;;;;5033471;28;20017;-72
2022/06/05 00:43:15;;;;;;;23.88;16.77;;;19.40;99.90;;;;;;5033500;28;20017;-72
2022/06/05 00:45:41;;;;;;;22.55;16.90;;;19.40;99.90;;;;;;5017975;28;20104;-73
2022/06/05 00:48:09;;;;;;;16.90;15.13;;;19.40;99.90;;;;;;5036375;28;20105;-73
2022/06/05 00:50:36;;;;;;;23.08;16.75;;;19.40;99.90;;;;;;5000618;28;20494;-72
2022/06/05 00:53:06;;;;;;;22.67;16.48;;;19.40;99.90;;;;;;5019577;28;20077;-72
2022/06/05 00:55:38;;;;;;;16.27;13.83;;;19.40;99.90;;;;;;5020506;28;20070;-72
2022/06/05 00:58:04;;;;;;;19.70;15.18;;;19.40;99.90;;;;;;5021962;28;20029;-73
2022/06/05 01:00:34;;;;;;;22.10;15.07;;;19.30;99.90;;;;;;5005132;28;20022;-73
2022/06/05 01:03:03;;;;;;;19.65;13.55;;;19.40;99.90;;;;;;5028082;28;20025;-73
2022/06/05 01:05:29;;;;;;;18.23;13.35;;;19.30;99.90;;;;;;5028281;28;20025;-72
2022/06/05 01:07:56;;;;;;;16.02;13.23;;;19.30;99.90;;;;;;5017802;28;20040;-72
2022/06/05 01:10:26;;;;;;;18.08;13.57;;;19.30;99.90;;;;;;5020892;28;20013;-73
2022/06/05 01:13:16;;;;;;;16.37;13.33;;;19.30;99.90;;;;;;5034388;28;20048;-72
2022/06/05 01:16:09;;;;;;;16.37;12.80;;;19.30;99.90;;;;;;5020677;28;20044;-71
2022/06/05 01:18:39;;;;;;;18.95;12.10;;;19.30;99.90;;;;;;5000069;28;20061;-73
2022/06/05 01:21:08;;;;;;;14.95;11.02;;;19.30;99.90;;;;;;5032017;28;21877;-72
2022/06/05 01:23:55;;;;;;;11.93;10.60;;;19.20;99.90;;;;;;5019870;28;20375;-72
2022/06/05 01:26:26;;;;;;;17.15;11.45;;;19.20;99.90;;;;;;5020981;28;20056;-72
2022/06/05 01:29:08;;;;;;;18.80;11.13;;;19.10;99.90;;;;;;5006518;28;20022;-72
2022/06/05 01:31:39;;;;;;;18.55;12.23;;;19.00;99.90;;;;;;5023580;28;20045;-71
2022/06/05 01:34:04;;;;;;;14.85;11.32;;;19.00;99.90;;;;;;5032875;28;20018;-72
2022/06/05 01:36:34;;;;;;;14.15;10.60;;;19.00;99.90;;;;;;5032724;28;20486;-73
2022/06/05 01:39:09;;;;;;;11.98;10.05;;;18.80;99.90;;;;;;5016050;28;20024;-72
2022/06/05 01:41:45;;;;;;;14.40;10.25;;;18.80;99.90;;;;;;5034285;28;20017;-72
2022/06/05 01:44:17;;;;;;;14.52;9.45;;;18.70;99.90;;;;;;5026735;28;20053;-72
2022/06/05 01:46:43;;;;;;;13.43;10.63;;;18.70;99.90;;;;;;5007425;28;20056;-72
2022/06/05 01:49:32;;;;;;;17.65;11.20;;;18.60;99.90;;;;;;5030040;28;20021;-71
2022/06/05 01:52:19;;;;;;;15.18;9.35;;;18.60;99.90;;;;;;5014177;28;20022;-73
2022/06/05 01:55:09;;;;;;;12.40;8.90;;;18.50;99.90;;;;;;5011658;28;20467;-72
2022/06/05 01:57:36;;;;;;;11.40;8.02;;;18.50;99.90;;;;;;5034986;28;20030;-72
2022/06/05 02:00:15;;;;;;;10.02;7.65;;;18.50;99.90;;;;;;5036833;28;20060;-71
2022/06/05 02:02:46;;;;;;;10.55;8.10;;;18.40;99.90;;;;;;5038418;28;20028;-71
2022/06/05 02:05:18;;;;;;;12.10;7.95;;;18.30;99.90;;;;;;5037970;28;20103;-71
2022/06/05 02:07:51;;;;;;;11.73;7.32;;;18.30;99.90;;;;;;5035895;28;20033;-73
2022/06/05 02:10:33;;;;;;;10.00;7.55;;;18.20;99.90;;;;;;5032511;28;20520;-72
2022/06/05 02:13:00;;;;;;;14.30;7.35;;;18.20;99.90;;;;;;5035475;28;20029;-72
2022/06/05 02:15:28;;;;;;;9.68;7.38;;;18.10;99.90;;;;;;5028344;28;20033;-72
2022/06/05 02:17:56;;;;;;;15.80;6.85;;;18.10;99.90;;;;;;5029308;28;20397;-72
2022/06/05 02:20:22;;;;;;;10.27;6.50;;;18.00;99.90;;;;;;5032009;28;20017;-72
2022/06/05 02:22:50;;;;;;;8.15;5.70;;;18.00;99.90;;;;;;5032358;28;20022;-72
2022/06/05 02:25:20;;;;;;;10.63;7.35;;;17.90;99.90;;;;;;5027786;28;20080;-72
2022/06/05 02:27:46;;;;;;;8.73;5.77;;;17.90;99.90;;;;;;5026276;28;20062;-71
2022/06/05 02:30:14;;;;;;;12.00;6.05;;;17.80;99.90;;;;;;5012737;28;20116;-72
2022/06/05 02:32:54;;;;;;;7.93;5.95;;;17.80;99.90;;;;;;5025966;28;20022;-73
2022/06/05 02:36:00;;;;;;;10.73;6.43;;;17.70;99.90;;;;;;5018843;28;20037;-71
2022/06/05 02:38:47;;;;;;;10.45;5.93;;;17.70;99.90;;;;;;5018691;28;20327;-72
2022/06/05 02:41:29;;;;;;;8.55;5.88;;;17.60;99.90;;;;;;5014179;28;20026;-72
2022/06/05 02:44:29;;;;;;;10.27;6.30;;;17.60;99.90;;;;;;5018178;28;20097;-71
2022/06/05 02:47:13;;;;;;;6.30;5.70;;;17.50;99.90;;;;;;5036273;28;20025;-71
2022/06/05 02:49:47;;;;;;;7.20;5.40;;;17.50;99.90;;;;;;5020135;28;20103;-72
2022/06/05 02:52:14;;;;;;;9.82;6.55;;;17.40;99.90;;;;;;5031870;28;20022;-72
2022/06/05 02:54:47;;;;;;;10.63;6.55;;;17.40;99.90;;;;;;5004368;28;20030;-71
2022/06/05 02:57:13;;;;;;;7.30;5.55;;;17.30;99.90;;;;;;5021694;28;20528;-71
2022/06/05 02:59:39;;;;;;;12.13;6.35;;;17.30;99.90;;;;;;5024129;28;20097;-72
2022/06/05 03:04:50;;;;;;;7.47;6.00;;;17.30;99.90;;;;;;5034924;28;20032;-72
2022/06/05 03:07:16;;;;;;;6.57;5.90;;;17.30;99.90;;;;;;5036043;28;20029;-73
2022/06/05 03:09:42;;;;;;;6.55;5.75;;;17.30;99.90;;;;;;5032432;28;20026;-71
2022/06/05 03:12:08;;;;;;;9.70;6.07;;;17.30;99.90;;;;;;5023377;28;20490;-73
2022/06/05 03:14:34;;;;;;;11.73;6.03;;;17.30;99.90;;;;;;5033361;28;20025;-72
2022/06/05 03:17:00;;;;;;;9.13;6.20;;;17.30;99.90;;;;;;5032363;28;20037;-71
2022/06/05 03:19:27;;;;;;;8.55;6.35;;;17.30;99.90;;;;;;5034596;28;20551;-71
2022/06/05 03:21:53;;;;;;;8.73;6.90;;;17.30;99.90;;;;;;5020153;28;20401;-71
2022/06/05 03:24:18;;;;;;;11.73;6.55;;;17.30;99.90;;;;;;5019092;28;20112;-71
2022/06/05 03:26:45;;;;;;;10.75;6.00;;;17.30;99.90;;;;;;5008715;28;20022;-71
2022/06/05 03:29:11;;;;;;;8.13;5.72;;;17.30;99.90;;;;;;5020476;28;20421;-71
2022/06/05 03:31:38;;;;;;;10.27;6.97;;;17.20;99.90;;;;;;5020412;28;20105;-71
2022/06/05 03:34:04;;;;;;;11.02;6.25;;;17.20;99.90;;;;;;5024385;28;20083;-72
2022/06/05 03:36:30;;;;;;;10.90;6.80;;;17.20;99.90;;;;;;5022740;28;20033;-72
2022/06/05 03:38:56;;;;;;;7.90;5.88;;;17.20;99.90;;;;;;5036453;28;20081;-73
2022/06/05 03:41:22;;;;;;;11.60;6.43;;;17.20;99.90;;;;;;5024227;28;20468;-71
2022/06/05 03:43:48;;;;;;;10.25;6.60;;;17.20;99.90;;;;;;5030102;28;20481;-71
2022/06/05 03:46:16;;;;;;;8.20;6.55;;;17.20;99.90;;;;;;5009875;28;21050;-71
2022/06/05 03:48:42;;;;;;;14.18;6.65;;;17.20;99.90;;;;;;5014062;28;20422;-71
2022/06/05 03:51:11;;;;;;;10.60;7.28;;;17.20;99.90;;;;;;5031337;28;20026;-73
2022/06/05 03:53:38;;;;;;;11.38;7.05;;;17.30;99.90;;;;;;5016281;28;20485;-72
2022/06/05 03:56:11;;;;;;;9.80;6.55;;;17.20;99.90;;;;;;5016746;28;20393;-73
2022/06/05 03:58:37;;;;;;;11.90;7.22;;;17.20;99.90;;;;;;5024983;28;20029;-71
2022/06/05 04:01:07;;;;;;;14.23;6.15;;;17.20;99.90;;;;;;5036986;28;20017;-72
2022/06/05 04:03:33;;;;;;;10.43;6.32;;;17.20;99.90;;;;;;5023309;28;20048;-73
2022/06/05 04:05:59;;;;;;;10.35;6.85;;;17.20;99.90;;;;;;5037275;28;20021;-72
2022/06/05 04:08:24;;;;;;;12.02;7.03;;;17.10;99.90;;;;;;5034145;28;20065;-72
2022/06/05 04:10:50;;;;;;;8.82;7.28;;;17.10;99.90;;;;;;5024572;28;20053;-72
2022/06/05 04:13:16;;;;;;;11.35;6.15;;;17.10;99.90;;;;;;5030508;28;20132;-72
2022/06/05 04:15:42;;;;;;;10.77;7.18;;;17.10;99.90;;;;;;5028768;28;20026;-71
2022/06/05 04:18:08;;;;;;;10.52;6.82;;;17.00;99.90;;;;;;5034089;28;20032;-73
2022/06/05 04:20:38;;;;;;;10.48;6.45;;;17.00;99.90;;;;;;5033795;28;20018;-73
2022/06/05 04:23:04;;;;;;;14.10;8.27;;;17.00;99.90;;;;;;5018500;28;20116;-72
2022/06/05 04:25:29;;;;;;;9.02;7.03;;;17.00;99.90;;;;;;5035685;28;20052;-73
2022/06/05 04:27:56;;;;;;;11.82;7.03;;;17.00;99.90;;;;;;5018596;28;20032;-72
2022/06/05 04:30:26;;;;;;;9.38;7.00;;;17.00;99.90;;;;;;5020437;28;20037;-72
2022/06/05 04:32:52;;;;;;;12.20;7.60;;;17.00;99.90;;;;;;5002531;28;20491;-72
2022/06/05 04:35:18;;;;;;;10.68;6.97;;;17.10;99.90;;;;;;5023349;28;20022;-71
2022/06/05 04:37:44;;;;;;;10.77;6.80;;;17.00;99.90;;;;;;5027373;28;20119;-71
2022/06/05 04:40:11;;;;;;;11.15;6.45;;;17.10;99.90;;;;;;5029380;28;20050;-73
2022/06/05 04:42:37;;;;;;;8.13;6.70;;;17.10;99.90;;;;;;5010753;28;20029;-72
2022/06/05 04:45:03;;;;;;;8.32;7.05;;;17.10;99.90;;;;;;5026437;28;20069;-72
2022/06/05 04:47:30;;;;;;;10.13;6.28;;;17.10;99.90;;;;;;5032066;28;20061;-71
2022/06/05 04:49:55;;;;;;;11.32;7.32;;;17.10;99.90;;;;;;5028969;28;20022;-73
2022/06/05 04:52:21;;;;;;;10.23;6.88;;;17.10;99.90;;;;;;5034204;28;20496;-73
2022/06/05 04:54:47;;;;;;;11.23;7.28;;;17.10;99.90;;;;;;5032484;28;20022;-72
2022/06/05 04:57:13;;;;;;;10.40;7.13;;;17.10;99.90;;;;;;5035679;28;20033;-73
2022/06/05 04:59:38;;;;;;;14.90;7.32;;;17.10;99.90;;;;;;5035363;28;20393;-72
2022/06/05 05:02:04;;;;;;;13.38;6.32;;;17.10;99.90;;;;;;5029189;28;20153;-73
2022/06/05 05:04:30;;;;;;;10.15;7.75;;;17.20;99.90;;;;;;5029932;28;20104;-72
2022/06/05 05:06:57;;;;;;;13.55;7.35;;;17.20;99.90;;;;;;5034246;28;20029;-73
2022/06/05 05:09:22;;;;;;;15.52;7.53;;;17.20;99.90;;;;;;5014268;28;20030;-72
2022/06/05 05:11:48;;;;;;;11.50;7.20;;;17.20;99.90;;;;;;5033587;28;20032;-72
2022/06/05 05:14:14;;;;;;;9.15;6.43;;;17.30;99.90;;;;;;5027928;28;20560;-71
2022/06/05 05:16:40;;;;;;;12.38;6.93;;;17.30;99.90;;;;;;5034010;28;20029;-72
2022/06/05 05:19:07;;;;;;;9.90;7.05;;;17.40;99.90;;;;;;5024303;28;20486;-72
2022/06/05 05:21:33;;;;;;;8.55;5.50;;;17.40;99.90;;;;;;5036368;28;20018;-72
2022/06/05 05:23:59;;;;;;;11.48;6.20;;;17.40;99.90;;;;;;5008419;28;20032;-73
2022/06/05 05:26:28;;;;;;;8.23;6.18;;;17.40;99.90;;;;;;5032440;28;20097;-70
2022/06/05 05:28:55;;;;;;;9.73;5.68;;;17.40;99.90;;;;;;5029349;28;20028;-71
2022/06/05 05:31:30;;;;;;;11.15;5.32;;;17.50;99.90;;;;;;5033944;28;20022;-72
2022/06/05 05:33:56;;;;;;;9.73;5.40;;;17.50;99.90;;;;;;5035687;28;20021;-72
2022/06/05 05:36:24;;;;;;;7.95;5.38;;;17.60;99.90;;;;;;5029805;28;20032;-72
2022/06/05 05:44:20;;;;;;;10.23;5.65;;;17.50;99.90;;;;;;5031754;28;20406;-72
2022/06/05 05:46:46;;;;;;;11.02;5.65;;;17.60;99.90;;;;;;5017565;28;20036;-73
2022/06/05 05:49:13;;;;;;;16.10;6.35;;;17.60;99.90;;;;;;5023158;28;20108;-72
2022/06/05 05:51:40;;;;;;;10.40;5.60;;;17.60;99.90;;;;;;5026535;28;20018;-71
2022/06/05 05:54:06;;;;;;;9.65;5.57;;;17.60;99.90;;;;;;5030022;28;20025;-72
2022/06/05 05:56:32;;;;;;;9.07;6.03;;;17.60;99.90;;;;;;5014455;28;20021;-72
2022/06/05 05:58:58;;;;;;;11.60;6.72;;;17.50;99.90;;;;;;5029400;28;20395;-71
2022/06/05 06:01:24;;;;;;;12.32;6.57;;;17.60;99.90;;;;;;5030347;28;20032;-72
2022/06/05 06:03:50;;;;;;;11.25;6.70;;;17.50;99.90;;;;;;5033462;28;20093;-72
2022/06/05 06:06:18;;;;;;;10.77;6.40;;;17.50;99.90;;;;;;5032318;28;20045;-71
2022/06/05 06:08:44;;;;;;;13.52;7.53;;;17.50;99.90;;;;;;5018740;28;20018;-71
2022/06/05 06:11:10;;;;;;;8.98;6.63;;;17.50;99.90;;;;;;5036259;28;20544;-71
2022/06/05 06:13:35;;;;;;;15.85;7.10;;;17.50;99.90;;;;;;5021133;28;20456;-72
2022/06/05 06:16:01;;;;;;;12.60;6.63;;;17.60;99.90;;;;;;5035962;28;20021;-71
2022/06/05 06:18:27;;;;;;;16.50;7.93;;;17.60;99.90;;;;;;5020884;28;20018;-71
2022/06/05 06:20:53;;;;;;;15.25;8.10;;;17.70;99.90;;;;;;5023614;28;20513;-71
2022/06/05 06:23:19;;;;;;;7.63;6.47;;;17.80;99.90;;;;;;5005011;28;20049;-73
2022/06/05 06:25:44;;;;;;;16.25;8.48;;;17.80;99.90;;;;;;5026849;28;20018;-72
2022/06/05 06:28:11;;;;;;;13.85;6.93;;;18.00;99.90;;;;;;5025527;28;20509;-71
2022/06/05 06:30:38;;;;;;;15.77;7.32;;;18.10;99.90;;;;;;5029079;28;20401;-72
2022/06/05 06:33:04;;;;;;;12.13;6.38;;;18.20;99.90;;;;;;5029289;28;20029;-72
2022/06/05 06:35:30;;;;;;;12.40;7.03;;;18.30;99.90;;;;;;5016501;28;20053;-73
2022/06/05 06:37:56;;;;;;;8.77;6.22;;;18.40;99.90;;;;;;5035444;28;20020;-71
2022/06/05 06:40:22;;;;;;;15.57;6.63;;;18.50;99.90;;;;;;5035305;28;20109;-72
2022/06/05 06:42:48;;;;;;;12.63;5.68;;;18.50;99.90;;;;;;5035687;28;20096;-71
2022/06/05 06:45:14;;;;;;;10.60;6.88;;;18.60;99.90;;;;;;5012133;28;20072;-72
2022/06/05 06:47:40;;;;;;;9.80;7.35;;;18.60;99.90;;;;;;5026590;28;20058;-72
2022/06/05 06:50:06;;;;;;;9.85;5.88;;;18.60;99.90;;;;;;5029271;28;20508;-73
2022/06/05 06:52:32;;;;;;;14.20;6.88;;;18.50;99.90;;;;;;5018601;28;20088;-72
2022/06/05 06:54:58;;;;;;;12.35;5.90;;;18.60;99.90;;;;;;5030754;28;20482;-73
2022/06/05 06:57:24;;;;;;;11.32;6.65;;;18.70;99.90;;;;;;5034215;28;20026;-72
2022/06/05 06:59:50;;;;;;;13.50;6.30;;;18.70;99.90;;;;;;5014037;28;20481;-73
2022/06/05 07:02:15;;;;;;;25.25;7.28;;;18.80;99.90;;;;;;5036565;28;20421;-71
2022/06/05 07:04:41;;;;;;;10.18;5.70;;;19.00;99.90;;;;;;5018320;28;20068;-73
2022/06/05 07:07:07;;;;;;;8.40;5.72;;;19.20;99.90;;;;;;5038708;28;20389;-72
2022/06/05 07:09:33;;;;;;;11.85;5.75;;;19.30;99.90;;;;;;5036011;28;20038;-71
2022/06/05 07:11:59;;;;;;;7.43;5.60;;;19.40;99.90;;;;;;5021157;28;20029;-72
2022/06/05 07:14:26;;;;;;;8.35;5.85;;;19.50;99.90;;;;;;5024560;28;20041;-71
2022/06/05 07:16:54;;;;;;;11.23;5.45;;;19.50;99.90;;;;;;5029979;28;20022;-72
2022/06/05 07:19:19;;;;;;;16.27;5.97;;;19.50;99.90;;;;;;5027292;28;20107;-72
2022/06/05 07:21:45;;;;;;;11.27;5.25;;;19.60;99.90;;;;;;5026561;28;20061;-74
2022/06/05 07:24:11;;;;;;;11.90;5.25;;;19.60;99.90;;;;;;5028912;28;20469;-73
2022/06/05 07:26:37;;;;;;;12.23;5.97;;;19.40;99.90;;;;;;5029888;28;20029;-73
2022/06/05 07:29:04;;;;;;;8.10;5.28;;;19.40;99.90;;;;;;5030006;28;20024;-73
2022/06/05 07:31:31;;;;;;;13.20;5.20;;;19.50;99.90;;;;;;5015216;28;20402;-73
2022/06/05 07:33:58;;;;;;;6.72;5.03;;;19.40;99.90;;;;;;5012551;28;20463;-72
2022/06/05 07:36:26;;;;;;;10.75;5.35;;;19.50;99.90;;;;;;5020330;28;20025;-72
2022/06/05 07:38:53;;;;;;;9.18;5.47;;;19.50;99.90;;;;;;5016553;28;20028;-71
2022/06/05 07:41:29;;;;;;;12.15;5.50;;;19.70;99.90;;;;;;5032046;28;20029;-72
2022/06/05 07:43:55;;;;;;;7.25;4.32;;;19.90;99.90;;;;;;5035335;28;20505;-72
2022/06/05 07:46:22;;;;;;;7.10;4.63;;;20.10;99.90;;;;;;5022618;28;20105;-72
2022/06/05 07:48:48;;;;;;;9.30;4.78;;;20.20;99.90;;;;;;5007975;28;20583;-72
2022/06/05 07:56:50;;;;;;;5.57;4.45;;;20.00;99.90;;;;;;5011497;28;20410;-72
2022/06/05 07:59:16;;;;;;;12.38;4.43;;;19.90;99.90;;;;;;5011160;28;20018;-71
2022/06/05 08:01:42;;;;;;;6.72;4.03;;;19.80;99.90;;;;;;5013576;28;20022;-73
2022/06/05 08:04:08;;;;;;;10.60;4.97;;;19.90;99.90;;;;;;5014062;28;20056;-73
2022/06/05 08:06:34;;;;;;;10.38;4.55;;;19.80;99.90;;;;;;5014620;28;20026;-72
2022/06/05 08:09:02;;;;;;;9.25;4.75;;;19.80;99.90;;;;;;5015960;28;20026;-73
2022/06/05 08:11:28;;;;;;;9.07;6.65;;;19.70;99.90;;;;;;5001506;28;20046;-72
2022/06/05 08:13:54;;;;;;;9.30;5.47;;;19.70;99.90;;;;;;5000370;28;20030;-74
2022/06/05 08:16:19;;;;;;;9.18;4.78;;;19.70;99.90;;;;;;5011349;28;20413;-72
2022/06/05 08:18:45;;;;;;;11.43;5.13;;;19.70;99.90;;;;;;5001035;28;20022;-72
2022/06/05 08:21:11;;;;;;;12.35;4.88;;;19.70;99.90;;;;;;5010413;28;20072;-73
2022/06/05 08:23:38;;;;;;;10.57;4.97;;;19.60;99.90;;;;;;5017486;28;20475;-73
2022/06/05 08:26:04;;;;;;;10.10;5.25;;;19.60;99.90;;;;;;5012119;28;20029;-73
2022/06/05 08:28:30;;;;;;;7.43;4.43;;;19.60;99.90;;;;;;5003138;28;20030;-73
2022/06/05 08:30:56;;;;;;;9.52;5.00;;;19.60;99.90;;;;;;5016461;28;20026;-72
2022/06/05 08:33:22;;;;;;;10.05;4.88;;;19.50;99.90;;;;;;5017224;28;20033;-72
2022/06/05 08:35:49;;;;;;;14.40;5.68;;;19.50;99.90;;;;;;4999875;28;20026;-73
2022/06/05 08:41:26;;;;;;;10.93;4.97;;;19.50;99.90;;;;;;5001952;28;20085;-72
2022/06/05 08:43:58;;;;;;;6.78;5.00;;;19.50;99.90;;;;;;5007202;28;20133;-73
2022/06/05 08:46:38;;;;;;;12.18;5.18;;;19.50;99.90;;;;;;5003220;28;20022;-72
2022/06/05 08:49:17;;;;;;;12.38;5.90;;;19.60;99.90;;;;;;5007354;28;20046;-72
2022/06/05 08:51:53;;;;;;;9.40;4.80;;;19.80;99.90;;;;;;5008830;28;20022;-72
2022/06/05 08:54:44;;;;;;;12.65;5.55;;;19.70;99.90;;;;;;5011725;28;20037;-72
2022/06/05 08:57:30;;;;;;;18.55;5.25;;;19.90;99.90;;;;;;5017478;28;20038;-72
2022/06/05 09:00:19;;;;;;;7.82;4.13;;;20.10;99.90;;;;;;5013263;28;20021;-72
2022/06/05 09:02:53;;;;;;;8.45;4.75;;;20.30;99.90;;;;;;5015706;28;20030;-72
2022/06/05 09:05:31;;;;;;;6.90;4.47;;;20.50;99.90;;;;;;5008384;28;20027;-74
2022/06/05 09:08:25;;;;;;;9.63;5.32;;;20.60;99.90;;;;;;5003042;28;20034;-73
2022/06/05 09:10:59;;;;;;;11.27;4.93;;;20.60;99.90;;;;;;5014993;28;20041;-73
2022/06/05 09:13:40;;;;;;;8.73;4.03;;;20.80;99.90;;;;;;5005055;28;20033;-72
2022/06/05 09:16:12;;;;;;;7.20;4.28;;;21.00;99.90;;;;;;5016038;28;20022;-73
2022/06/05 09:18:44;;;;;;;12.82;4.45;;;21.00;99.90;;;;;;5006938;28;20032;-72
2022/06/05 09:21:12;;;;;;;12.73;3.97;;;21.10;99.90;;;;;;5012762;28;20014;-71
2022/06/05 09:23:41;;;;;;;8.23;3.70;;;21.10;99.90;;;;;;5008453;28;20077;-73
2022/06/05 09:26:22;;;;;;;10.10;4.40;;;21.30;99.90;;;;;;5007831;28;20581;-72
2022/06/05 09:29:19;;;;;;;8.57;4.72;;;21.30;99.90;;;;;;5015214;28;20030;-72
2022/06/05 09:32:11;;;;;;;7.85;3.83;;;21.30;99.90;;;;;;5016957;28;20030;-72
2022/06/05 09:34:46;;;;;;;13.05;4.38;;;21.60;99.90;;;;;;5019126;28;20023;-73
2022/06/05 09:37:31;;;;;;;9.00;3.83;;;21.60;99.90;;;;;;5016806;28;20041;-73
2022/06/05 09:40:03;;;;;;;11.40;4.18;;;21.60;99.90;;;;;;5017001;28;20057;-72
2022/06/05 09:42:44;;;;;;;4.38;2.90;;;21.60;99.90;;;;;;5018870;28;20087;-73
2022/06/05 09:45:25;;;;;;;10.32;3.47;;;21.60;99.90;;;;;;5010310;28;20021;-74
2022/06/05 09:48:24;;;;;;;13.35;3.30;;;21.70;99.90;;;;;;5009537;28;20042;-73
2022/06/05 09:50:51;;;;;;;11.25;3.88;;;21.70;99.90;;;;;;5014491;28;20036;-72
2022/06/05 09:53:31;;;;;;;5.50;3.40;;;21.70;99.90;;;;;;5013587;28;20518;-73
2022/06/05 09:56:24;;;;;;;8.60;3.35;;;22.00;99.90;;;;;;5017981;28;20036;-73
2022/06/05 09:59:12;;;;;;;9.52;3.55;;;22.20;99.90;;;;;;5009179;28;20033;-72
2022/06/05 10:01:55;;;;;;;5.65;3.30;;;22.30;99.90;;;;;;5014808;28;20447;-73
2022/06/05 10:04:27;;;;;;;9.43;3.53;;;22.50;99.90;;;;;;5002498;28;20022;-73
2022/06/05 10:07:03;;;;;;;7.28;2.80;;;22.60;99.90;;;;;;5008154;28;20025;-74
2022/06/05 10:09:31;;;;;;;6.38;3.50;;;22.50;99.90;;;;;;5010241;28;20030;-73
2022/06/05 10:12:03;;;;;;;5.32;3.15;;;22.50;99.90;;;;;;5004476;28;20110;-73
2022/06/05 10:14:42;;;;;;;7.70;3.35;;;22.50;99.90;;;;;;5009765;28;20117;-72
2022/06/05 10:17:26;;;;;;;7.68;3.20;;;22.50;99.90;;;;;;5015772;28;20022;-73
2022/06/05 10:20:13;;;;;;;6.72;3.13;;;22.60;99.90;;;;;;5019372;28;20029;-74
2022/06/05 10:22:39;;;;;;;5.78;2.85;;;22.50;99.90;;;;;;5015730;28;20025;-73
2022/06/05 10:25:35;;;;;;;5.13;2.92;;;22.60;99.90;;;;;;5004874;28;20022;-73
2022/06/05 10:28:24;;;;;;;3.92;2.47;;;22.70;99.90;;;;;;5009350;28;20086;-73
2022/06/05 10:31:07;;;;;;;9.00;3.30;;;22.80;99.90;;;;;;5015494;28;20037;-73
2022/06/05 10:33:41;;;;;;;5.35;3.33;;;22.90;99.90;;;;;;5018937;28;20018;-73
2022/06/05 10:36:18;;;;;;;6.97;3.13;;;22.90;99.90;;;;;;5010463;28;20022;-72
2022/06/05 10:38:52;;;;;;;6.75;3.30;;;22.90;99.90;;;;;;5004258;28;20045;-75
2022/06/05 10:41:30;;;;;;;6.53;3.50;;;22.90;99.90;;;;;;5002846;28;20057;-72
2022/06/05 10:44:20;;;;;;;6.35;2.65;;;23.00;99.90;;;;;;5006885;28;20046;-73
2022/06/05 10:47:08;;;;;;;4.20;2.55;;;22.80;99.90;;;;;;5007459;28;21368;-73
2022/06/05 10:49:55;;;;;;;6.78;2.70;;;22.80;99.90;;;;;;4971311;28;20128;-74
2022/06/05 10:52:34;;;;;;;6.07;2.55;;;22.80;99.90;;;;;;5015212;28;20476;-73
2022/06/05 10:55:42;;;;;;;5.22;2.80;;;22.80;99.90;;;;;;5031158;28;20041;-74
2022/06/05 10:58:21;;;;;;;7.57;3.38;;;22.90;99.90;;;;;;5031414;28;20037;-73
2022/06/05 11:00:50;;;;;;;3.45;2.45;;;23.10;99.90;;;;;;5035438;28;20025;-73
2022/06/05 11:03:34;;;;;;;8.60;3.40;;;23.30;99.90;;;;;;5015690;28;20551;-74
2022/06/05 11:06:08;;;;;;;4.93;2.47;;;23.50;99.90;;;;;;5038575;28;20025;-76
2022/06/05 11:08:59;;;;;;;8.00;2.42;;;23.50;99.90;;;;;;5035255;28;20112;-74
2022/06/05 11:14:33;;;;;;;5.22;2.50;;;23.60;99.90;;;;;;5027346;28;20049;-75
2022/06/05 11:17:17;;;;;;;5.75;3.03;;;23.60;99.90;;;;;;5011439;28;20022;-73
2022/06/05 11:20:09;;;;;;;6.13;2.45;;;23.50;99.90;;;;;;5025663;28;20017;-72
2022/06/05 11:22:46;;;;;;;4.63;2.33;;;23.70;99.90;;;;;;5032257;28;20033;-74
2022/06/05 11:25:21;;;;;;;6.10;3.00;;;23.70;99.90;;;;;;5017503;28;20402;-73
2022/06/05 11:28:09;;;;;;;4.53;2.78;;;23.50;99.90;;;;;;5025528;28;20112;-73
2022/06/05 11:30:45;;;;;;;7.03;2.53;;;23.60;99.90;;;;;;5016010;28;20112;-74
2022/06/05 11:33:26;;;;;;;6.05;2.88;;;23.80;99.90;;;;;;5019662;28;20026;-74
2022/06/05 11:35:59;;;;;;;5.07;2.28;;;23.90;99.90;;;;;;5020665;28;20018;-73
2022/06/05 11:38:55;;;;;;;5.78;3.10;;;23.70;99.90;;;;;;5014244;28;20030;-74
2022/06/05 11:41:36;;;;;;;8.77;3.67;;;23.40;99.90;;;;;;5031412;28;20030;-75
2022/06/05 11:44:23;;;;;;;6.53;3.08;;;23.00;99.90;;;;;;5023732;28;20025;-75
2022/06/05 11:47:10;;;;;;;7.25;3.47;;;22.80;99.90;;;;;;5027586;28;20157;-74
2022/06/05 11:50:13;;;;;;;9.32;2.63;;;22.60;99.90;;;;;;5009062;28;20037;-73
2022/06/05 11:52:56;;;;;;;6.70;2.15;;;22.50;99.90;;;;;;5026978;28;20037;-73
2022/06/05 11:55:33;;;;;;;5.65;3.47;;;22.80;99.90;;;;;;5024849;28;20433;-73
2022/06/05 11:58:22;;;;;;;5.82;3.22;;;23.40;99.90;;;;;;5014759;28;20026;-74
2022/06/05 12:00:57;;;;;;;7.80;2.58;;;23.90;99.90;;;;;;5035949;28;20048;-73
2022/06/05 12:03:31;;;;;;;3.28;2.25;;;24.10;99.90;;;;;;5019318;28;20057;-73
2022/06/05 12:06:14;;;;;;;9.93;2.80;;;24.00;99.90;;;;;;5024937;28;20013;-73
2022/06/05 12:08:47;;;;;;;8.75;2.25;;;24.00;99.90;;;;;;5019964;28;20026;-75
2022/06/05 12:11:33;;;;;;;5.95;2.78;;;23.90;99.90;;;;;;5006133;28;20040;-73
2022/06/05 12:14:08;;;;;;;6.25;2.63;;;23.80;99.90;;;;;;5022881;28;20052;-74
2022/06/05 12:16:43;;;;;;;5.75;2.85;;;23.80;99.90;;;;;;5034637;28;20096;-73
2022/06/05 12:19:34;;;;;;;5.75;2.58;;;23.90;99.90;;;;;;5010278;28;20029;-74
2022/06/05 12:22:26;;;;;;;7.53;3.30;;;24.40;99.90;;;;;;5010323;28;20466;-74
2022/06/05 12:25:20;;;;;;;6.75;2.67;;;24.40;99.90;;;;;;4981865;28;20040;-73
2022/06/05 12:27:52;;;;;;;3.33;2.60;;;24.20;99.90;;;;;;5007362;28;20029;-75
2022/06/05 12:30:26;;;;;;;8.65;2.95;;;24.00;99.90;;;;;;5033789;28;20030;-73
2022/06/05 12:33:05;;;;;;;8.30;2.80;;;23.80;99.90;;;;;;5036837;28;20049;-73
2022/06/05 12:35:40;;;;;;;6.72;2.30;;;23.80;99.90;;;;;;5002305;28;20057;-74
2022/06/05 12:38:26;;;;;;;5.75;2.53;;;23.80;99.90;;;;;;5001106;28;20394;-73
2022/06/05 12:41:00;;;;;;;6.35;2.83;;;23.90;99.90;;;;;;5019119;28;20438;-75
2022/06/05 12:43:40;;;;;;;5.10;2.30;;;23.90;99.90;;;;;;5004312;28;20029;-74
2022/06/05 12:46:35;;;;;;;7.60;2.75;;;24.00;99.90;;;;;;5002920;28;20050;-73
2022/06/05 12:49:28;;;;;;;3.83;2.90;;;24.20;99.90;;;;;;5022035;28;20041;-73
2022/06/05 12:52:16;;;;;;;4.78;2.47;;;24.20;99.90;;;;;;5028037;28;20535;-74
2022/06/05 12:54:52;;;;;;;4.65;2.72;;;24.30;99.90;;;;;;5007733;28;20026;-73
2022/06/05 12:57:26;;;;;;;5.50;2.85;;;24.30;99.90;;;;;;5029907;28;20048;-74
2022/06/05 13:00:02;;;;;;;7.07;2.60;;;24.20;99.90;;;;;;5011608;28;20022;-73
2022/06/05 13:02:41;;;;;;;5.90;2.83;;;24.00;99.90;;;;;;5031729;28;20037;-73
2022/06/05 13:05:26;;;;;;;3.90;2.70;;;23.80;99.90;;;;;;5006724;28;20108;-74
2022/06/05 13:08:04;;;;;;;9.50;3.53;;;23.80;99.90;;;;;;5016183;28;20060;-73
2022/06/05 13:10:38;;;;;;;7.03;2.88;;;23.80;99.90;;;;;;5019013;28;20038;-73
2022/06/05 13:13:19;;;;;;;7.63;3.08;;;23.80;99.90;;;;;;5031501;28;20458;-72
2022/06/05 13:15:51;;;;;;;7.55;2.30;;;23.90;99.90;;;;;;5030225;28;20431;-73
2022/06/05 13:18:24;;;;;;;4.68;2.63;;;24.20;99.90;;;;;;5027492;28;20061;-76
2022/06/05 13:21:19;;;;;;;4.65;2.17;;;24.30;99.90;;;;;;5027766;28;20053;-73
2022/06/05 13:23:55;;;;;;;6.15;2.08;;;24.40;99.90;;;;;;5009306;28;20490;-74
2022/06/05 13:26:54;;;;;;;3.22;2.00;;;24.20;99.90;;;;;;5033294;28;20021;-73
2022/06/05 13:29:49;;;;;;;4.93;2.28;;;24.10;99.90;;;;;;5033729;28;20030;-73
2022/06/05 13:32:40;;;;;;;5.70;1.98;;;24.00;99.90;;;;;;5015473;28;20046;-74